MET'MAP v2.0
soon released !

Expected late october,
this new version will be
more efficient, smarter,
and hosted on a brand new
server x3 powerfull...
...and still free !


Not compatible ?
Try the mobile version !

LOG IN : | Subscribe | Disclaimer | Who is Orbifly ? |
ICAO code :
Legend : VFR Marginal VFR IFR Intensive IFR Very Intensive IFR
Visi :
Ceiling :
>= 8 km
>= 3000ft
5 to 8 km
1000 to 3000 ft
1500m to 5 km
500 to 1000 ft
800 to 1500m
200 to 500 ft
< 800m
< 200 ft

METAR - LEGR Granada - 05 Mar 2021 01:11 UTC - Data Source NOAA   


- Airport Elevation : 1860 ft
- IATA code : GRX
- No reported NOTAMs.


LEGR - Granada

Latest METAR recorded : 2015/08/11 08:00 LEGR 110800Z VRB01KT 9999 FEW080 26/19 Q1016
TAF TAF LEGR
Valid from the 04 at 21:00 until the 05 at 21:00 UTC


042000Z 0421/0521 10003KT 9999 FEW060 TX17/0515Z TN04/0507Z
BECMG 0510/0513 16011KT
PROB30
TEMPO 0516/0520 4000 -RA BKN014
BECMG 0518/0520 VRB02KT

Source NOAA


MET'MAP, your aeronautical weather chart ! - Copyright ORBIFLY December 2007

Programming & Development : Alexandra Zaïnal
Co-Developer : Marc-Olivier Méhu
Technical & hardware support : Manuel Goepfert
Concept & Financing : Baudouin d'Aumeries